Portada
METAR-TAF:

METAR-TAF

Aeroports :

Sohag, Egipte

latitud: 26-20-25N, longitud: 31-44-20E, altitud: 70 m

Observació

L'informe es va fer fa 1 hora i 20 minuts, a les 07:00 UTC
Vent 8 kt del Nord/Nord-Oest
Temperatura 25°C
Humitat 41%
Pressió 1018 hPa
Visibilitat 10 km o més
sense núvols per sota de 1500 mi sense presència de cumulonimbus.

METAR: HESG 200700Z 34008KT CAVOK 25/11 Q1018 NOSIG

Hora: 10:20 (08:20 UTC)

Pronòstic

L'informe es va fer fa 3 hores i 20 minuts, a les 05:00 UTC
Pronòstic vàlid del 20 a les 06 UTC al 21 a les 12 UTC
Vent 8 kt del Nord/Nord-Oest amb ràfegues de 18 kt
Visibilitat 10 km o més
sense núvols per sota de 1500 mi sense presència de cumulonimbus.

TAF: HESG 200500Z 2006/2112 34008G18KT CAVOK

Observacions i pronòstics meteorològics de més de 4000 aeroports (METAR i TAF).

Les estacions disponibles són els punts grocs i vermells al mapa.

Posi el ratolí al punt desitjat per veure el nom de l'estació.

Feu clic per veure les observacions i els pronòstics meteorològics.

Per canviar el mapa: feu clic els botons verds amb una creu de color negre per apropar; al botó verd amb un guió per allunyar la imatge; o en les fletxes verdes per a mapes adjacents.


METAR-TAF: